< < Back
Terminal Aerodrome Forecast


Current Version              Previous Versions:   1  2  3  4  5  6  7  8  9  

Terminal Aerodrome Forecast

645
FTUS44 KBMX 221100
TAFBHM
TAF
KBHM 221124Z 2212/2312 02005KT P6SM SKC
     FM221500 02008KT P6SM SKC
     FM230000 02003KT P6SM SKC=



Latest METAR

687
SAUS70 KWBC 231300 RRL
MTRBHM
METAR KBHM 231253Z VRB06KT 10SM CLR 08/04 A3017 RMK AO2 SLP215
T00780044


USA.gov is the U.S. government's official web portal to all federal, state and local government web resources and services.